createdAt,value
2022-10-05T00:02:21.738Z,6.40
2022-10-05T00:04:52.232Z,6.17
2022-10-05T00:07:20.279Z,6.93
2022-10-05T00:09:58.616Z,7.83
2022-10-05T00:12:27.051Z,6.30
2022-10-05T00:14:59.613Z,6.50
2022-10-05T00:17:28.903Z,6.60
2022-10-05T00:19:56.115Z,6.87
2022-10-05T00:22:24.338Z,6.63
2022-10-05T00:24:57.705Z,7.20
2022-10-05T00:27:43.316Z,6.70
2022-10-05T00:30:20.893Z,6.47
2022-10-05T00:32:47.962Z,7.10
2022-10-05T00:35:16.568Z,6.93
2022-10-05T00:37:44.525Z,7.70
2022-10-05T00:40:36.747Z,7.43
2022-10-05T00:43:22.609Z,7.43
2022-10-05T00:45:56.487Z,6.87
2022-10-05T00:48:47.140Z,7.40
2022-10-05T00:51:28.044Z,6.87
2022-10-05T00:53:55.104Z,7.17
2022-10-05T00:56:43.710Z,7.80
2022-10-05T00:59:33.901Z,6.93
2022-10-05T01:02:07.235Z,7.00
2022-10-05T01:04:40.039Z,6.90
2022-10-05T01:07:16.016Z,6.83
2022-10-05T01:10:04.289Z,6.93
2022-10-05T01:13:07.891Z,6.63
2022-10-05T01:15:46.828Z,7.53
2022-10-05T01:18:49.657Z,7.10
2022-10-05T01:21:25.919Z,6.83
2022-10-05T01:24:25.928Z,7.13
2022-10-05T01:27:01.420Z,7.00
2022-10-05T01:29:42.977Z,7.40
2022-10-05T01:32:41.642Z,6.93
2022-10-05T01:35:43.382Z,7.23
2022-10-05T01:39:05.595Z,6.77
2022-10-05T01:41:45.167Z,7.03
2022-10-05T01:44:12.275Z,6.87
2022-10-05T01:46:43.276Z,7.57
2022-10-05T01:49:11.958Z,7.10
2022-10-05T01:51:47.593Z,7.30
2022-10-05T01:54:26.251Z,7.73
2022-10-05T01:57:04.832Z,7.53
2022-10-05T01:59:50.272Z,8.23
2022-10-05T02:02:20.688Z,7.80
2022-10-05T02:05:03.782Z,7.03
2022-10-05T02:07:34.201Z,7.90
2022-10-05T02:10:05.950Z,7.57
2022-10-05T02:12:37.406Z,7.20
2022-10-05T02:15:15.644Z,7.30
2022-10-05T02:17:48.047Z,7.00
2022-10-05T02:20:22.437Z,7.30
2022-10-05T02:22:55.928Z,8.00
2022-10-05T02:25:28.408Z,6.90
2022-10-05T02:28:13.944Z,7.63
2022-10-05T02:30:47.042Z,6.77
2022-10-05T02:33:28.669Z,7.73
2022-10-05T02:36:00.836Z,7.43
2022-10-05T02:38:52.369Z,7.10
2022-10-05T02:41:47.650Z,7.30
2022-10-05T02:44:40.234Z,7.60
2022-10-05T02:47:10.514Z,8.30
2022-10-05T02:50:13.550Z,8.03
2022-10-05T02:52:49.358Z,7.40
2022-10-05T02:55:29.704Z,7.73
2022-10-05T02:58:11.838Z,7.00
2022-10-05T03:01:22.608Z,7.80
2022-10-05T03:04:07.290Z,7.80
2022-10-05T03:06:42.225Z,7.33
2022-10-05T03:09:09.935Z,7.73
2022-10-05T03:12:05.622Z,8.60
2022-10-05T03:14:38.476Z,7.17
2022-10-05T03:17:05.538Z,8.07
2022-10-05T03:19:55.583Z,7.70
2022-10-05T03:22:35.413Z,8.10
2022-10-05T03:25:14.268Z,8.17
2022-10-05T03:27:58.181Z,9.40
2022-10-05T03:30:27.573Z,8.30
2022-10-05T03:33:09.504Z,8.50
2022-10-05T03:35:51.441Z,8.40
2022-10-05T03:38:43.962Z,8.50
2022-10-05T03:41:29.635Z,8.80
2022-10-05T03:44:22.750Z,9.20
2022-10-05T03:46:50.526Z,8.90
2022-10-05T03:49:22.564Z,8.67
2022-10-05T03:52:22.071Z,9.23
2022-10-05T03:55:00.114Z,8.93
2022-10-05T03:57:31.571Z,8.87
2022-10-05T04:00:04.315Z,8.53
2022-10-05T04:02:40.358Z,9.27
2022-10-05T04:05:10.067Z,7.90
2022-10-05T04:07:46.721Z,9.13
2022-10-05T04:10:19.300Z,9.30
2022-10-05T04:12:54.221Z,9.13
2022-10-05T04:15:37.283Z,9.50
2022-10-05T04:18:09.719Z,9.00
2022-10-05T04:20:46.645Z,8.43
2022-10-05T04:23:40.361Z,8.63
2022-10-05T04:26:13.967Z,8.17
2022-10-05T04:29:28.228Z,8.73
2022-10-05T04:32:16.164Z,8.90
2022-10-05T04:34:53.063Z,9.17
2022-10-05T04:37:43.216Z,9.23
2022-10-05T04:40:36.613Z,9.40
2022-10-05T04:43:28.513Z,8.40
2022-10-05T04:46:16.968Z,9.03
2022-10-05T04:49:21.174Z,9.53
2022-10-05T04:52:05.021Z,8.87
2022-10-05T04:54:50.264Z,9.17
2022-10-05T04:57:26.594Z,9.60
2022-10-05T05:00:21.754Z,9.07
2022-10-05T05:03:18.373Z,8.93
2022-10-05T05:06:16.785Z,9.70
2022-10-05T05:08:57.307Z,9.17
2022-10-05T05:11:58.872Z,9.33
2022-10-05T05:14:55.134Z,8.90
2022-10-05T05:17:46.960Z,9.67
2022-10-05T05:20:31.010Z,8.93
2022-10-05T05:23:00.675Z,8.50
2022-10-05T05:26:02.615Z,8.67
2022-10-05T05:28:53.446Z,8.43
2022-10-05T05:32:06.922Z,8.93
2022-10-05T05:34:38.046Z,8.53
2022-10-05T05:37:05.092Z,9.07
2022-10-05T05:39:50.201Z,9.00
2022-10-05T05:42:26.158Z,8.50
2022-10-05T05:44:56.383Z,8.37
2022-10-05T05:47:38.011Z,8.43
2022-10-05T05:50:38.765Z,8.47
2022-10-05T05:53:20.600Z,7.73
2022-10-05T05:55:56.085Z,7.20
2022-10-05T05:58:27.413Z,7.57
2022-10-05T06:01:32.192Z,7.90
2022-10-05T06:04:06.987Z,7.53
2022-10-05T06:06:38.377Z,7.90
2022-10-05T06:09:18.988Z,7.33
2022-10-05T06:12:04.738Z,7.80
2022-10-05T06:15:03.991Z,7.77
2022-10-05T06:17:39.040Z,7.27
2022-10-05T06:20:16.663Z,6.87
2022-10-05T06:22:45.905Z,7.47
2022-10-05T06:25:12.972Z,7.43
2022-10-05T06:27:58.177Z,6.93
2022-10-05T06:30:30.387Z,7.33
2022-10-05T06:33:34.554Z,7.00
2022-10-05T06:36:17.534Z,6.80
2022-10-05T06:39:11.898Z,7.67
2022-10-05T06:41:38.493Z,6.70
2022-10-05T06:44:28.124Z,7.43
2022-10-05T06:47:23.157Z,6.77
2022-10-05T06:50:04.110Z,6.57
2022-10-05T06:53:02.152Z,6.93
2022-10-05T06:55:57.156Z,7.13
2022-10-05T06:58:41.681Z,7.23
2022-10-05T07:01:20.623Z,7.13
2022-10-05T07:04:15.325Z,7.07
2022-10-05T07:06:58.443Z,7.63
2022-10-05T07:10:04.025Z,7.77
2022-10-05T07:12:31.055Z,7.40
2022-10-05T07:15:24.490Z,7.23
2022-10-05T07:17:51.617Z,6.97
2022-10-05T07:20:30.259Z,7.30
2022-10-05T07:23:25.859Z,7.30
2022-10-05T07:26:08.242Z,7.80
2022-10-05T07:29:10.639Z,7.60
2022-10-05T07:32:06.227Z,8.10
2022-10-05T07:34:53.596Z,7.97
2022-10-05T07:37:51.193Z,9.27
2022-10-05T07:40:30.689Z,8.40
2022-10-05T07:44:00.429Z,9.60
2022-10-05T07:46:38.477Z,9.50
2022-10-05T07:49:14.051Z,9.47
2022-10-05T07:51:45.243Z,10.00
2022-10-05T07:54:21.297Z,10.60
2022-10-05T07:57:04.676Z,10.60
2022-10-05T07:59:49.140Z,11.70
2022-10-05T08:02:44.375Z,13.27
2022-10-05T08:05:29.911Z,12.27
2022-10-05T08:08:25.515Z,10.67
2022-10-05T08:11:06.597Z,11.83
2022-10-05T08:13:54.687Z,9.87
2022-10-05T08:16:26.449Z,10.43
2022-10-05T08:19:15.239Z,8.90
2022-10-05T08:21:51.882Z,8.90
2022-10-05T08:24:37.188Z,9.17
2022-10-05T08:27:13.760Z,8.67
2022-10-05T08:29:58.842Z,8.30
2022-10-05T08:32:30.864Z,8.50
2022-10-05T08:35:36.098Z,7.63
2022-10-05T08:38:10.136Z,7.67
2022-10-05T08:41:04.609Z,7.40
2022-10-05T08:44:05.604Z,7.17
2022-10-05T08:47:07.936Z,8.77
2022-10-05T08:50:05.449Z,8.30
2022-10-05T08:53:09.537Z,7.90
2022-10-05T08:56:17.636Z,7.67
2022-10-05T08:58:49.538Z,7.43
2022-10-05T09:01:26.622Z,6.87
2022-10-05T09:04:30.197Z,7.03
2022-10-05T09:07:22.143Z,8.03
2022-10-05T09:10:01.683Z,7.83
2022-10-05T09:12:37.479Z,7.73
2022-10-05T09:15:26.532Z,7.00
2022-10-05T09:18:11.698Z,6.50
2022-10-05T09:20:53.284Z,6.50
2022-10-05T09:23:38.263Z,7.00
2022-10-05T09:26:45.159Z,6.37
2022-10-05T09:29:44.711Z,6.10
2022-10-05T09:32:50.309Z,6.57
2022-10-05T09:35:37.805Z,6.60
2022-10-05T09:38:38.690Z,6.00
2022-10-05T09:41:30.232Z,5.37
2022-10-05T09:43:57.285Z,5.17
2022-10-05T09:46:46.147Z,5.40
2022-10-05T09:49:40.412Z,5.20
2022-10-05T09:52:39.203Z,5.37
2022-10-05T09:55:33.970Z,5.43
2022-10-05T09:58:39.927Z,5.37
2022-10-05T10:01:09.780Z,4.63
2022-10-05T10:04:17.615Z,4.40
2022-10-05T10:07:05.297Z,4.80
2022-10-05T10:09:53.537Z,4.23
2022-10-05T10:12:29.274Z,4.40
2022-10-05T10:15:28.539Z,3.90
2022-10-05T10:18:04.252Z,3.70
2022-10-05T10:20:41.681Z,3.60
2022-10-05T10:23:40.274Z,4.10
2022-10-05T10:26:07.348Z,3.57
2022-10-05T10:28:55.465Z,3.70
2022-10-05T10:31:31.012Z,3.63
2022-10-05T10:34:18.810Z,3.07
2022-10-05T10:36:50.452Z,3.60
2022-10-05T10:39:17.323Z,3.50
2022-10-05T10:42:05.272Z,3.47
2022-10-05T10:45:04.937Z,3.43
2022-10-05T10:48:07.127Z,3.43
2022-10-05T10:50:55.167Z,3.50
2022-10-05T10:53:36.790Z,4.43
2022-10-05T10:56:26.302Z,4.17
2022-10-05T10:59:04.937Z,3.57
2022-10-05T11:01:36.053Z,3.97
2022-10-05T11:04:13.340Z,3.63
2022-10-05T11:07:06.275Z,3.20
2022-10-05T11:10:14.304Z,3.17
2022-10-05T11:12:56.168Z,3.30
2022-10-05T11:15:34.855Z,3.50
2022-10-05T11:18:20.377Z,3.13
2022-10-05T11:21:17.593Z,2.90
2022-10-05T11:24:05.927Z,2.90
2022-10-05T11:26:35.580Z,3.30
2022-10-05T11:29:29.419Z,2.97
2022-10-05T11:32:34.090Z,3.57
2022-10-05T11:35:36.446Z,2.33
2022-10-05T11:38:19.987Z,2.20
2022-10-05T11:41:16.542Z,1.90
2022-10-05T11:43:43.694Z,2.17
2022-10-05T11:46:10.778Z,2.10
2022-10-05T11:49:00.380Z,2.20
2022-10-05T11:51:44.506Z,1.80
2022-10-05T11:54:38.328Z,2.20
2022-10-05T11:57:21.317Z,2.03
2022-10-05T11:59:56.415Z,1.87
2022-10-05T12:02:52.900Z,1.63
2022-10-05T12:05:25.415Z,1.83
2022-10-05T12:07:52.468Z,1.85
2022-10-05T12:10:32.773Z,1.70
2022-10-05T12:13:28.901Z,1.63
2022-10-05T12:16:26.277Z,1.60
2022-10-05T12:19:13.858Z,1.80
2022-10-05T12:21:49.956Z,1.60
2022-10-05T12:24:26.939Z,1.67
2022-10-05T12:27:07.890Z,1.70
2022-10-05T12:29:56.098Z,1.83
2022-10-05T12:33:06.821Z,1.70
2022-10-05T12:35:49.311Z,2.00
2022-10-05T12:38:34.252Z,1.65
2022-10-05T12:41:25.666Z,1.85
2022-10-05T12:43:58.803Z,1.80
2022-10-05T12:46:37.533Z,1.97
2022-10-05T12:49:32.951Z,1.73
2022-10-05T12:52:02.421Z,1.57
2022-10-05T12:54:58.666Z,1.90
2022-10-05T12:57:58.389Z,2.23
2022-10-05T13:00:25.378Z,1.90
2022-10-05T13:03:03.850Z,1.77
2022-10-05T13:05:51.305Z,2.40
2022-10-05T13:08:29.227Z,1.80
2022-10-05T13:11:05.657Z,1.90
2022-10-05T13:14:07.420Z,1.90
2022-10-05T13:16:45.699Z,1.60
2022-10-05T13:19:54.203Z,1.80
2022-10-05T13:22:34.252Z,1.70
2022-10-05T13:25:10.947Z,1.80
2022-10-05T13:27:44.470Z,1.70
2022-10-05T13:30:19.298Z,1.90
2022-10-05T13:32:52.085Z,1.90
2022-10-05T13:35:21.932Z,2.13
2022-10-05T13:38:07.190Z,2.08
2022-10-05T13:40:53.938Z,2.88
2022-10-05T13:43:35.200Z,1.98
2022-10-05T13:46:14.827Z,1.65
2022-10-05T13:48:56.910Z,1.90
2022-10-05T13:51:47.980Z,1.67
2022-10-05T13:54:42.727Z,2.20
2022-10-05T13:57:51.562Z,1.90
2022-10-05T14:00:26.383Z,1.80
2022-10-05T14:02:57.210Z,2.17
2022-10-05T14:05:29.672Z,2.10
2022-10-05T14:08:10.114Z,1.85
2022-10-05T14:10:39.974Z,2.20
2022-10-05T14:13:23.396Z,2.28
2022-10-05T14:16:13.336Z,2.13
2022-10-05T14:18:53.203Z,2.22
2022-10-05T14:21:22.600Z,2.27
2022-10-05T14:23:53.496Z,2.45
2022-10-05T14:26:32.924Z,2.75
2022-10-05T14:29:19.205Z,2.93
2022-10-05T14:32:15.611Z,2.42
2022-10-05T14:34:42.687Z,2.13
2022-10-05T14:37:18.603Z,2.42
2022-10-05T14:39:48.478Z,2.60
2022-10-05T14:42:20.566Z,2.00
2022-10-05T14:45:11.351Z,1.90
2022-10-05T14:47:53.529Z,1.80
2022-10-05T14:50:29.755Z,1.95
2022-10-05T14:53:11.447Z,1.73
2022-10-05T14:55:42.622Z,2.00
2022-10-05T14:58:32.796Z,2.20
2022-10-05T15:01:16.304Z,2.00
2022-10-05T15:04:06.714Z,2.20
2022-10-05T15:06:38.432Z,2.10
2022-10-05T15:09:32.651Z,2.10
2022-10-05T15:12:02.082Z,1.73
2022-10-05T15:14:42.933Z,2.00
2022-10-05T15:17:17.798Z,1.92
2022-10-05T15:20:01.681Z,2.08
2022-10-05T15:22:36.243Z,2.28
2022-10-05T15:25:23.221Z,2.50
2022-10-05T15:28:14.708Z,2.60
2022-10-05T15:30:51.885Z,1.80
2022-10-05T15:33:31.256Z,2.20
2022-10-05T15:36:19.185Z,2.50
2022-10-05T15:39:01.979Z,2.00
2022-10-05T15:42:06.966Z,2.20
2022-10-05T15:44:58.033Z,2.35
2022-10-05T15:47:45.773Z,2.50
2022-10-05T15:50:26.248Z,3.17
2022-10-05T15:53:10.593Z,2.60
2022-10-05T15:55:56.550Z,2.10
2022-10-05T15:58:41.567Z,2.53
2022-10-05T16:01:18.656Z,2.37
2022-10-05T16:04:35.661Z,2.33
2022-10-05T16:07:21.283Z,2.47
2022-10-05T16:09:59.360Z,3.83
2022-10-05T16:12:44.970Z,5.07
2022-10-05T16:15:22.101Z,3.70
2022-10-05T16:18:14.659Z,3.07
2022-10-05T16:21:02.075Z,2.63
2022-10-05T16:24:07.013Z,2.83
2022-10-05T16:26:39.675Z,3.00
2022-10-05T16:29:24.746Z,3.00
2022-10-05T16:32:08.220Z,2.90
2022-10-05T16:34:49.869Z,2.90
2022-10-05T16:37:31.961Z,3.30
2022-10-05T16:40:08.602Z,2.60
2022-10-05T16:42:58.872Z,3.37
2022-10-05T16:45:55.598Z,3.37
2022-10-05T16:48:31.734Z,3.40
2022-10-05T16:51:16.947Z,4.10
2022-10-05T16:54:08.356Z,3.40
2022-10-05T16:56:45.223Z,4.10
2022-10-05T17:00:01.813Z,3.73
2022-10-05T17:02:53.386Z,4.78
2022-10-05T17:05:48.118Z,4.00
2022-10-05T17:08:33.412Z,4.03
2022-10-05T17:11:06.738Z,4.13
2022-10-05T17:13:55.210Z,3.20
2022-10-05T17:16:36.706Z,2.00
2022-10-05T17:19:37.254Z,2.10
2022-10-05T17:22:11.777Z,2.03
2022-10-05T17:24:47.351Z,2.13
2022-10-05T17:27:51.053Z,1.77
2022-10-05T17:30:38.632Z,1.90
2022-10-05T17:33:23.247Z,1.50
2022-10-05T17:36:12.447Z,1.75
2022-10-05T17:38:48.740Z,1.87
2022-10-05T17:41:24.295Z,1.90
2022-10-05T17:44:09.706Z,2.07
2022-10-05T17:46:48.517Z,2.20
2022-10-05T17:49:36.635Z,2.50
2022-10-05T17:52:38.866Z,2.30
2022-10-05T17:55:31.667Z,2.20
2022-10-05T17:58:20.134Z,2.53
2022-10-05T18:00:58.594Z,2.50
2022-10-05T18:03:38.869Z,2.37
2022-10-05T18:06:24.531Z,2.17
2022-10-05T18:09:10.158Z,2.60
2022-10-05T18:12:07.532Z,2.33
2022-10-05T18:14:52.773Z,2.40
2022-10-05T18:17:45.528Z,2.50
2022-10-05T18:20:21.027Z,2.57
2022-10-05T18:22:50.526Z,2.30
2022-10-05T18:25:38.199Z,2.40
2022-10-05T18:28:06.079Z,2.27
2022-10-05T18:31:10.846Z,2.70
2022-10-05T18:33:55.985Z,2.50
2022-10-05T18:36:37.914Z,2.87
2022-10-05T18:39:25.841Z,2.97
2022-10-05T18:42:01.110Z,2.33
2022-10-05T18:44:39.689Z,2.97
2022-10-05T18:47:18.370Z,3.53
2022-10-05T18:50:02.934Z,2.60
2022-10-05T18:52:49.997Z,2.50
2022-10-05T18:55:33.107Z,2.63
2022-10-05T18:58:36.934Z,3.10
2022-10-05T19:01:03.533Z,2.57
2022-10-05T19:03:51.370Z,2.40
2022-10-05T19:06:31.223Z,2.43
2022-10-05T19:09:20.027Z,2.60
2022-10-05T19:12:09.372Z,2.80
2022-10-05T19:15:00.042Z,2.60
2022-10-05T19:17:44.719Z,2.40
2022-10-05T19:20:39.915Z,2.70
2022-10-05T19:23:13.387Z,2.93
2022-10-05T19:25:47.450Z,3.20
2022-10-05T19:28:29.450Z,2.60
2022-10-05T19:31:12.801Z,2.50
2022-10-05T19:34:06.866Z,2.67
2022-10-05T19:36:45.499Z,2.80
2022-10-05T19:39:27.454Z,2.90
2022-10-05T19:42:24.870Z,3.07
2022-10-05T19:45:12.715Z,2.77
2022-10-05T19:47:45.607Z,2.97
2022-10-05T19:50:21.500Z,2.93
2022-10-05T19:52:52.058Z,2.70
2022-10-05T19:55:22.341Z,3.00
2022-10-05T19:57:54.062Z,2.83
2022-10-05T20:00:32.497Z,2.97
2022-10-05T20:03:11.967Z,2.63
2022-10-05T20:05:53.845Z,2.97
2022-10-05T20:08:23.189Z,2.87
2022-10-05T20:11:14.132Z,2.70
2022-10-05T20:13:45.001Z,2.37
2022-10-05T20:16:49.109Z,2.33
2022-10-05T20:19:47.598Z,2.10
2022-10-05T20:22:33.017Z,2.70
2022-10-05T20:25:06.228Z,2.80
2022-10-05T20:27:50.597Z,2.50
2022-10-05T20:30:23.338Z,2.50
2022-10-05T20:32:51.449Z,2.40
2022-10-05T20:35:22.122Z,2.33
2022-10-05T20:37:49.946Z,2.57
2022-10-05T20:40:18.735Z,2.30
2022-10-05T20:42:45.783Z,2.40
2022-10-05T20:45:13.262Z,2.00
2022-10-05T20:47:40.567Z,2.37
2022-10-05T20:50:11.667Z,2.13
2022-10-05T20:52:38.729Z,2.47
2022-10-05T20:55:08.766Z,2.20
2022-10-05T20:57:38.466Z,2.80
2022-10-05T21:00:05.939Z,2.63
2022-10-05T21:02:32.879Z,2.20
2022-10-05T21:05:00.009Z,2.10
2022-10-05T21:07:27.139Z,2.10
2022-10-05T21:09:55.633Z,2.07
2022-10-05T21:12:22.313Z,1.90
2022-10-05T21:14:48.967Z,1.97
2022-10-05T21:17:16.031Z,1.93
2022-10-05T21:19:43.092Z,1.80
2022-10-05T21:22:10.253Z,1.93
2022-10-05T21:24:38.523Z,2.07
2022-10-05T21:27:05.852Z,2.20
2022-10-05T21:29:34.188Z,1.97
2022-10-05T21:32:01.309Z,1.80
2022-10-05T21:34:28.790Z,2.10
2022-10-05T21:36:55.812Z,2.13
2022-10-05T21:39:22.514Z,1.80
2022-10-05T21:41:49.903Z,1.80
2022-10-05T21:44:16.792Z,2.00
2022-10-05T21:46:43.647Z,1.93
2022-10-05T21:49:10.402Z,2.10
2022-10-05T21:51:37.959Z,1.90
2022-10-05T21:54:19.115Z,2.10
2022-10-05T21:56:49.869Z,2.03
2022-10-05T21:59:20.073Z,2.30
2022-10-05T22:01:47.144Z,2.10
2022-10-05T22:04:15.127Z,2.10
2022-10-05T22:06:42.253Z,2.00
2022-10-05T22:09:09.243Z,1.87
2022-10-05T22:11:36.533Z,2.13
2022-10-05T22:14:03.673Z,2.00
2022-10-05T22:16:33.694Z,2.07
2022-10-05T22:19:05.191Z,2.20
2022-10-05T22:21:34.341Z,2.30
2022-10-05T22:24:02.712Z,2.30
2022-10-05T22:26:29.855Z,2.00
2022-10-05T22:28:57.031Z,1.40
2022-10-05T22:31:23.953Z,1.60
2022-10-05T22:33:51.263Z,1.10
2022-10-05T22:36:18.603Z,1.10
2022-10-05T22:38:47.439Z,1.07
2022-10-05T22:41:16.417Z,1.20
2022-10-05T22:43:43.556Z,1.10
2022-10-05T22:46:12.242Z,1.27
2022-10-05T22:48:39.826Z,1.13
2022-10-05T22:51:06.987Z,1.10
2022-10-05T22:53:34.390Z,1.10
2022-10-05T22:56:06.467Z,1.20
2022-10-05T22:58:33.161Z,1.20
2022-10-05T23:01:11.721Z,1.13
2022-10-05T23:03:38.716Z,1.10
2022-10-05T23:06:17.846Z,1.40
2022-10-05T23:08:46.358Z,1.10
2022-10-05T23:11:16.956Z,1.37
2022-10-05T23:13:44.591Z,1.20
2022-10-05T23:16:12.407Z,1.30
2022-10-05T23:18:39.428Z,1.30
2022-10-05T23:21:08.359Z,1.07
2022-10-05T23:23:40.492Z,1.53
2022-10-05T23:26:09.202Z,1.20
2022-10-05T23:28:36.445Z,1.20
2022-10-05T23:31:05.849Z,1.50
2022-10-05T23:33:33.022Z,1.23
2022-10-05T23:36:02.638Z,1.40
2022-10-05T23:38:30.384Z,1.20
2022-10-05T23:40:59.671Z,1.17
2022-10-05T23:43:27.068Z,1.10
2022-10-05T23:45:54.279Z,1.50
2022-10-05T23:48:21.507Z,1.37
2022-10-05T23:50:49.716Z,1.10
2022-10-05T23:53:17.532Z,1.00
2022-10-05T23:55:44.879Z,1.10
2022-10-05T23:58:12.318Z,1.03
